Terminal Aerodrome Forecast
Issued by NWS

Home | Current Version | Previous Version | Text Only | Print | Product List | Glossary On
Versions: 1 2 3 4 5 6 7 8 9 10 11 12 13 14 15 16 17 18 19 20 21
000
FTUS41 KPBZ 020100 AAB
TAFMGW
TAF AMD
KMGW 020121Z 0201/0224 15012G20KT 6SM -RA BR SCT004 OVC040
      TEMPO 0204/0206 3SM -RA BR BKN020
     FM020600 17010KT 1SM -RA BR OVC012
     FM021100 22010KT 4SM -DZ BR OVC012
     FM021500 29012G25KT 3SM -SHSN OVC010
     FM021800 30010G20KT 6SM -SHSN OVC020=

USA.gov is the U.S. government's official web portal to all federal, state and local government web resources and services.